Time;durP1;ratioP1;P1;durP2;ratioP2;P2;SDS_P1;SDS_P2;PMS_P1;PMS_P2;Temp;Humidity;BMP_temperature;BMP_pressure;BME280_temperature;BME280_humidity;BME280_pressure;Samples;Min_cycle;Max_cycle;Signal;HPM_P1;HPM_P2
2022/11/28 00:00:07;;;;;;;4.40;4.00;;;;;;;0.71;90.63;100869.47;1747823;81;21138;-76
2022/11/28 00:02:36;;;;;;;4.05;3.58;;;;;;;0.78;90.36;100870.02;1775157;80;21562;-77
2022/11/28 00:05:04;;;;;;;3.70;3.10;;;;;;;0.80;90.51;100873.41;1760572;79;21120;-77
2022/11/28 00:07:30;;;;;;;4.87;3.70;;;;;;;0.75;90.68;100880.63;1760223;80;21046;-77
2022/11/28 00:09:57;;;;;;;5.00;3.50;;;;;;;0.76;90.64;100882.33;1758963;80;21523;-78
2022/11/28 00:12:23;;;;;;;4.92;3.90;;;;;;;0.84;90.67;100887.18;1760791;81;21725;-76
2022/11/28 00:14:50;;;;;;;4.83;3.55;;;;;;;0.77;90.72;100885.31;1760808;81;20999;-75
2022/11/28 00:17:17;;;;;;;4.55;4.00;;;;;;;0.82;90.95;100882.02;1755759;81;21089;-76
2022/11/28 00:19:45;;;;;;;4.37;3.62;;;;;;;0.85;90.70;100885.80;1803536;79;21461;-73
2022/11/28 00:22:12;;;;;;;3.80;3.17;;;;;;;0.82;91.14;100882.48;1783340;79;21102;-72
2022/11/28 00:24:40;;;;;;;4.60;3.45;;;;;;;0.92;91.33;100887.63;1804913;79;21021;-76
2022/11/28 00:27:06;;;;;;;5.00;3.37;;;;;;;0.97;90.70;100881.70;1803580;79;21092;-75
2022/11/28 00:29:33;;;;;;;3.80;3.27;;;;;;;0.92;90.99;100887.16;1799016;79;20996;-76
2022/11/28 00:32:00;;;;;;;3.22;2.77;;;;;;;0.86;90.72;100888.78;1802068;79;21525;-76
2022/11/28 00:34:27;;;;;;;3.30;3.00;;;;;;;0.91;90.62;100885.48;1801141;79;21077;-75
2022/11/28 00:36:55;;;;;;;4.75;3.40;;;;;;;0.94;90.55;100888.39;1782493;79;21031;-75
2022/11/28 00:39:21;;;;;;;4.37;3.15;;;;;;;0.86;90.61;100888.78;1791112;79;21045;-75
2022/11/28 00:41:48;;;;;;;4.35;3.00;;;;;;;0.85;91.03;100896.27;1791366;79;21054;-76
2022/11/28 00:44:14;;;;;;;4.42;3.47;;;;;;;0.96;90.68;100891.30;1784769;79;21109;-77
2022/11/28 00:46:40;;;;;;;4.55;3.72;;;;;;;1.04;91.02;100888.77;1762928;80;21104;-77
2022/11/28 00:49:08;;;;;;;4.60;3.50;;;;;;;1.06;91.28;100889.06;1791280;80;20997;-76
2022/11/28 00:51:35;;;;;;;3.47;2.50;;;;;;;1.06;90.75;100888.22;1786195;80;20993;-74
2022/11/28 00:54:03;;;;;;;2.92;2.55;;;;;;;1.14;90.29;100888.67;1780444;80;21276;-76
2022/11/28 00:56:34;;;;;;;2.98;2.40;;;;;;;1.18;89.95;100890.23;1789624;80;20999;-74
2022/11/28 00:59:00;;;;;;;2.85;2.35;;;;;;;1.16;90.58;100894.23;1782943;78;21054;-75
2022/11/28 01:01:34;;;;;;;3.10;2.58;;;;;;;1.20;90.35;100890.13;1782227;80;21814;-74
2022/11/28 01:04:04;;;;;;;3.02;2.40;;;;;;;1.32;90.10;100886.88;1759145;81;21067;-75
2022/11/28 01:06:39;;;;;;;3.35;2.70;;;;;;;1.43;89.88;100895.46;1773589;80;21030;-75
2022/11/28 01:09:09;;;;;;;;;;;;;;;1.42;89.79;100888.08;1754708;80;21031;-74
2022/11/28 01:11:38;;;;;;;3.52;2.95;;;;;;;1.43;89.92;100878.00;1733508;81;20153;-74
2022/11/28 01:14:06;;;;;;;4.45;3.42;;;;;;;1.54;89.19;100884.80;1775358;79;21241;-74
2022/11/28 01:16:32;;;;;;;4.97;3.98;;;;;;;1.55;88.43;100886.50;1774469;80;21031;-74
2022/11/28 01:18:59;;;;;;;4.33;3.85;;;;;;;1.46;88.19;100888.77;1791763;80;21007;-74
2022/11/28 01:21:26;;;;;;;4.08;3.35;;;;;;;1.33;88.22;100886.81;1784202;79;22043;-73
2022/11/28 01:23:52;;;;;;;4.20;3.45;;;;;;;1.48;88.75;100890.84;1800584;79;21514;-74
2022/11/28 01:26:25;;;;;;;4.05;3.55;;;;;;;1.44;88.43;100890.63;1791956;79;22372;-74
2022/11/28 01:28:52;;;;;;;4.17;3.17;;;;;;;1.44;88.43;100890.63;1800515;79;21085;-74
2022/11/28 01:31:22;;;;;;;4.08;3.42;;;;;;;1.40;88.54;100890.41;1807353;79;21010;-75
2022/11/28 01:33:49;;;;;;;3.52;2.85;;;;;;;1.49;88.41;100887.30;1756835;80;21042;-75
2022/11/28 01:36:16;;;;;;;3.20;2.90;;;;;;;1.50;87.94;100891.59;1751278;81;21008;-75
2022/11/28 01:38:44;;;;;;;3.50;3.02;;;;;;;1.43;88.29;100891.09;1759331;81;21249;-75
2022/11/28 01:41:10;;;;;;;3.30;2.50;;;;;;;1.43;88.85;100892.41;1748296;81;21177;-75
2022/11/28 01:43:37;;;;;;;4.03;3.62;;;;;;;1.58;88.86;100889.41;1753981;80;21034;-74
2022/11/28 01:46:04;;;;;;;5.10;4.55;;;;;;;1.68;88.71;100895.87;1766968;80;21130;-75
2022/11/28 01:48:35;;;;;;;4.15;3.65;;;;;;;1.68;88.56;100896.31;1758938;81;21020;-75
2022/11/28 01:51:06;;;;;;;4.90;3.17;;;;;;;1.68;88.56;100896.31;1748962;81;21067;-72
2022/11/28 01:53:35;;;;;;;4.03;3.00;;;;;;;1.74;87.69;100894.22;1774320;80;21081;-75
2022/11/28 01:56:05;;;;;;;3.87;2.72;;;;;;;1.63;87.28;100898.35;1740319;81;21074;-75
2022/11/28 01:58:32;;;;;;;4.53;3.12;;;;;;;1.63;87.28;100898.35;1753459;81;21560;-74
2022/11/28 02:00:59;;;;;;;3.20;2.35;;;;;;;1.52;86.95;100904.15;1764733;79;21172;-74
2022/11/28 02:03:35;;;;;;;2.92;2.50;;;;;;;1.46;86.75;100901.86;1781007;79;21642;-75
2022/11/28 02:06:01;;;;;;;4.12;3.05;;;;;;;1.42;86.74;100906.88;1800948;79;21007;-75
2022/11/28 02:08:33;;;;;;;3.40;2.87;;;;;;;1.31;87.16;100903.50;1725889;81;21625;-74
2022/11/28 02:11:31;;;;;;;3.17;2.37;;;;;;;1.19;87.06;100902.38;1740832;81;20988;-74
2022/11/28 02:14:27;;;;;;;5.35;3.08;;;;;;;1.12;86.86;100901.86;1747275;81;20988;-74
2022/11/28 02:17:14;;;;;;;3.42;2.60;;;;;;;1.06;86.92;100893.45;1696241;83;21093;-74
2022/11/28 02:20:22;;;;;;;4.33;2.90;;;;;;;0.93;87.73;100899.33;1733525;80;21087;-73
2022/11/28 02:22:58;;;;;;;2.75;2.45;;;;;;;0.96;87.67;100903.08;1731239;81;21591;-75
2022/11/28 02:26:42;;;;;;;3.30;2.37;;;;;;;0.91;87.78;100895.11;1766092;80;22721;-75
2022/11/28 02:29:36;;;;;;;2.75;2.20;;;;;;;0.82;88.28;100899.49;1764830;80;21007;-75
2022/11/28 02:32:19;;;;;;;3.62;2.75;;;;;;;0.93;88.30;100900.64;1788516;80;21114;-75
2022/11/28 02:35:20;;;;;;;2.72;2.20;;;;;;;0.97;88.64;100893.02;1789942;80;21719;-75
2022/11/28 02:38:02;;;;;;;3.80;2.77;;;;;;;0.95;88.75;100899.26;1785288;79;21048;-75
2022/11/28 02:40:52;;;;;;;2.30;2.00;;;;;;;1.09;89.02;100897.23;1776724;79;21032;-76
2022/11/28 02:43:33;;;;;;;2.65;2.00;;;;;;;1.18;88.92;100908.55;1783976;80;21007;-73
2022/11/28 02:46:26;;;;;;;2.50;2.02;;;;;;;1.17;88.79;100911.61;1777408;80;21097;-74
2022/11/28 02:49:00;;;;;;;2.62;1.95;;;;;;;1.19;88.26;100912.84;1786716;79;21572;-74
2022/11/28 02:51:39;;;;;;;;;;;;;;;1.17;87.78;100906.38;1786983;79;21040;-74
2022/11/28 02:54:08;;;;;;;2.05;1.85;;;;;;;1.06;87.81;100913.09;1774236;79;20399;-74
2022/11/28 02:56:34;;;;;;;2.40;2.20;;;;;;;1.07;88.26;100916.10;1768824;80;21020;-74
2022/11/28 02:59:01;;;;;;;2.50;2.27;;;;;;;1.13;87.98;100906.16;1785748;79;21722;-74
2022/11/28 03:01:34;;;;;;;2.55;2.00;;;;;;;0.99;87.49;100911.27;1775527;79;21123;-76
2022/11/28 03:04:17;;;;;;;1.77;1.65;;;;;;;0.82;87.79;100918.64;1767983;79;21079;-74
2022/11/28 03:07:08;;;;;;;2.05;1.80;;;;;;;0.88;88.34;100917.02;1783314;80;21036;-75
2022/11/28 03:09:50;;;;;;;2.52;1.98;;;;;;;0.97;88.47;100907.41;1786204;80;21001;-76
2022/11/28 03:12:43;;;;;;;2.17;1.70;;;;;;;0.91;88.17;100911.65;1787782;79;21567;-75
2022/11/28 03:15:09;;;;;;;2.02;1.77;;;;;;;0.94;88.37;100908.02;1780461;80;20993;-75
2022/11/28 03:17:47;;;;;;;2.15;2.00;;;;;;;1.06;88.87;100915.23;1789735;80;21232;-76
2022/11/28 03:20:39;;;;;;;3.08;1.82;;;;;;;1.11;89.28;100922.40;1792152;79;20962;-75
2022/11/28 03:23:14;;;;;;;2.08;1.87;;;;;;;1.17;88.84;100914.70;1768931;78;20945;-74
2022/11/28 03:26:01;;;;;;;2.40;2.15;;;;;;;1.29;88.11;100918.45;1786403;78;21227;-75
2022/11/28 03:28:34;;;;;;;3.22;2.77;;;;;;;1.27;87.83;100920.30;1779559;78;21024;-76
2022/11/28 03:31:11;;;;;;;2.87;2.58;;;;;;;1.26;88.66;100924.70;1771626;79;21091;-75
2022/11/28 03:33:41;;;;;;;2.90;2.17;;;;;;;1.31;88.96;100918.77;1778533;80;21021;-80
2022/11/28 03:36:15;;;;;;;3.12;2.72;;;;;;;1.48;88.54;100927.03;1771462;80;21369;-76
2022/11/28 03:38:44;;;;;;;2.65;1.80;;;;;;;1.55;88.37;100923.17;1765903;79;21234;-75
2022/11/28 03:41:21;;;;;;;2.90;2.40;;;;;;;1.50;87.84;100931.72;1767009;79;21567;-75
2022/11/28 03:43:51;;;;;;;2.72;2.15;;;;;;;1.36;87.41;100927.69;1789205;80;21211;-75
2022/11/28 03:46:19;;;;;;;3.42;2.70;;;;;;;1.45;87.76;100935.50;1773460;80;21063;-74
2022/11/28 03:48:48;;;;;;;2.30;2.10;;;;;;;1.51;88.32;100932.12;1779711;80;21503;-75
2022/11/28 03:51:32;;;;;;;2.37;2.00;;;;;;;1.51;88.32;100932.12;1784883;79;21275;-75
2022/11/28 03:54:13;;;;;;;2.77;2.47;;;;;;;1.52;87.88;100937.72;1789218;80;21072;-76
2022/11/28 03:56:59;;;;;;;2.33;1.92;;;;;;;1.59;86.94;100938.73;1776441;80;21575;-75
2022/11/28 03:59:41;;;;;;;2.80;2.25;;;;;;;1.46;86.07;100941.98;1784920;80;21036;-76
2022/11/28 04:02:31;;;;;;;4.42;2.72;;;;;;;1.23;86.35;100940.55;1750567;79;21052;-74
2022/11/28 04:05:16;;;;;;;2.15;1.82;;;;;;;1.08;86.64;100946.56;1772279;78;21086;-74
2022/11/28 04:07:53;;;;;;;3.00;2.55;;;;;;;1.11;86.46;100949.05;1786193;80;21587;-75
2022/11/28 04:10:46;;;;;;;18.40;10.72;;;;;;;1.09;86.36;100949.58;1771247;80;21103;-76
2022/11/28 04:13:32;;;;;;;12.28;8.15;;;;;;;0.97;86.74;100954.51;1771510;79;25657;-76
2022/11/28 04:16:06;;;;;;;6.03;4.47;;;;;;;0.87;86.92;100953.72;1754833;78;21009;-74
2022/11/28 04:19:07;;;;;;;4.92;3.35;;;;;;;0.90;86.54;100957.03;1790985;80;21445;-74
2022/11/28 04:21:53;;;;;;;3.35;2.70;;;;;;;0.84;86.54;100956.04;1788816;79;21037;-78
2022/11/28 04:24:27;;;;;;;3.35;2.87;;;;;;;0.67;87.05;100962.56;1748078;80;21005;-78
2022/11/28 04:27:01;;;;;;;3.37;2.95;;;;;;;0.66;87.44;100956.48;1773877;79;21071;-77
2022/11/28 04:29:32;;;;;;;5.15;3.83;;;;;;;0.65;87.62;100962.63;1778247;80;21606;-80
2022/11/28 04:31:58;;;;;;;3.90;2.50;;;;;;;0.57;87.87;100963.00;1778100;79;21076;-76
2022/11/28 04:34:24;;;;;;;3.67;2.75;;;;;;;0.50;88.47;100965.55;1789051;80;21539;-77
2022/11/28 04:36:51;;;;;;;5.03;3.92;;;;;;;0.63;88.57;100963.16;1765673;80;21556;-77
2022/11/28 04:39:19;;;;;;;3.70;3.12;;;;;;;0.74;88.89;100961.34;1781706;79;21511;-76
2022/11/28 04:41:54;;;;;;;5.03;3.65;;;;;;;0.75;89.09;100963.89;1777890;80;21009;-78
2022/11/28 04:44:38;;;;;;;4.60;3.95;;;;;;;0.79;89.62;100961.95;1758328;80;21118;-78
2022/11/28 04:47:04;;;;;;;;;;;;;;;0.97;89.41;100963.66;1786354;80;21515;-77
2022/11/28 04:49:30;;;;;;;4.50;3.47;;;;;;;1.09;89.59;100958.27;1783432;80;20134;-77
2022/11/28 04:52:17;;;;;;;5.30;4.22;;;;;;;1.10;89.70;100957.80;1772798;79;21540;-77
2022/11/28 04:55:01;;;;;;;5.22;4.28;;;;;;;1.11;90.07;100962.97;1766514;79;21060;-78
2022/11/28 04:57:35;;;;;;;4.92;4.15;;;;;;;1.31;89.99;100962.41;1781419;80;21146;-77
2022/11/28 05:00:08;;;;;;;4.80;4.20;;;;;;;1.42;90.09;100967.95;1785862;79;21037;-78
2022/11/28 05:02:35;;;;;;;4.35;3.80;;;;;;;1.44;90.06;100958.70;1768233;80;21524;-77
2022/11/28 05:05:11;;;;;;;3.70;3.20;;;;;;;1.47;89.96;100961.15;1725653;80;21654;-76
2022/11/28 05:07:38;;;;;;;3.60;3.12;;;;;;;1.56;89.16;100960.67;1785807;79;21051;-75
2022/11/28 05:10:06;;;;;;;4.78;3.17;;;;;;;1.59;89.09;100968.86;1788464;79;21044;-75
2022/11/28 05:12:32;;;;;;;5.37;3.40;;;;;;;1.57;89.06;100967.62;1776214;80;21461;-76
2022/11/28 05:14:59;;;;;;;4.58;3.70;;;;;;;1.49;88.70;100976.34;1789165;80;21029;-76
2022/11/28 05:17:26;;;;;;;5.53;3.72;;;;;;;1.54;88.67;100976.47;1769391;80;21041;-74
2022/11/28 05:19:52;;;;;;;3.80;3.37;;;;;;;1.60;88.77;100980.54;1787330;79;21044;-76
2022/11/28 05:22:18;;;;;;;3.95;3.50;;;;;;;1.61;89.03;100981.41;1773324;80;21747;-76
2022/11/28 05:24:45;;;;;;;3.85;3.27;;;;;;;1.62;89.12;100979.99;1785609;79;21513;-74
2022/11/28 05:27:11;;;;;;;4.42;3.62;;;;;;;1.73;88.61;100979.45;1783701;79;21472;-75
2022/11/28 05:29:42;;;;;;;4.92;3.75;;;;;;;1.77;88.15;100977.88;1783745;80;21066;-76
2022/11/28 05:32:06;;;;;;;4.55;4.00;;;;;;;1.67;88.01;100983.23;1776963;80;21024;-76
2022/11/28 05:34:33;;;;;;;4.50;3.95;;;;;;;1.62;88.37;100979.99;1777246;80;21080;-73
2022/11/28 05:36:59;;;;;;;4.67;3.65;;;;;;;1.80;88.29;100989.13;1751768;79;21032;-75
2022/11/28 05:39:26;;;;;;;4.85;3.90;;;;;;;1.80;88.29;100989.13;1773533;80;21099;-75
2022/11/28 05:41:54;;;;;;;5.15;3.85;;;;;;;1.76;88.45;100990.61;1786622;80;21121;-76
2022/11/28 05:44:21;;;;;;;3.33;3.02;;;;;;;1.74;88.39;100996.40;1778901;80;21045;-74
2022/11/28 05:46:47;;;;;;;3.65;3.35;;;;;;;1.83;88.18;100996.36;1781406;79;21852;-75
2022/11/28 05:49:14;;;;;;;4.55;3.83;;;;;;;1.89;88.11;100999.99;1751532;79;21078;-74
2022/11/28 05:51:40;;;;;;;5.03;3.35;;;;;;;1.83;87.89;101000.77;1752070;80;21088;-73
2022/11/28 05:54:07;;;;;;;3.17;2.85;;;;;;;1.73;87.80;100996.00;1771015;80;21465;-74
2022/11/28 05:56:34;;;;;;;3.80;3.10;;;;;;;1.81;87.65;101003.45;1787632;80;21005;-73
2022/11/28 05:59:01;;;;;;;5.03;3.90;;;;;;;1.84;87.43;101002.47;1756413;79;21124;-73
2022/11/28 06:01:28;;;;;;;6.37;4.05;;;;;;;1.79;87.81;101005.78;1761663;80;21562;-71
2022/11/28 06:03:59;;;;;;;4.05;3.30;;;;;;;1.78;88.06;101011.50;1766844;78;21074;-69
2022/11/28 06:06:31;;;;;;;3.92;3.25;;;;;;;1.86;87.68;101009.78;1780775;79;21033;-71
2022/11/28 06:08:57;;;;;;;3.75;3.42;;;;;;;1.90;87.54;101010.84;1779422;79;21001;-73
2022/11/28 06:11:27;;;;;;;5.70;4.53;;;;;;;1.85;87.75;101009.39;1778594;80;21204;-71
2022/11/28 06:13:54;;;;;;;7.33;4.67;;;;;;;1.83;87.93;101015.17;1770659;80;21044;-68
2022/11/28 06:16:23;;;;;;;6.45;4.85;;;;;;;1.92;87.86;101018.62;1778488;79;21028;-72
2022/11/28 06:18:54;;;;;;;8.98;5.80;;;;;;;1.96;87.57;101024.09;1769658;80;21036;-71
2022/11/28 06:21:21;;;;;;;9.90;6.53;;;;;;;1.91;87.81;101026.09;1784387;79;21047;-71
2022/11/28 06:23:47;;;;;;;14.98;9.03;;;;;;;1.88;88.09;101032.35;1788953;80;21230;-70
2022/11/28 06:26:18;;;;;;;14.13;8.95;;;;;;;1.98;87.85;101031.88;1788194;80;21512;-70
2022/11/28 06:28:44;;;;;;;15.35;9.50;;;;;;;2.00;87.50;101030.86;1782816;79;21512;-71
2022/11/28 06:31:18;;;;;;;13.68;8.98;;;;;;;1.95;87.80;101037.66;1760631;80;20996;-71
2022/11/28 06:33:44;;;;;;;13.62;8.23;;;;;;;1.92;87.73;101036.98;1783208;80;21536;-71
2022/11/28 06:36:12;;;;;;;9.30;6.67;;;;;;;2.02;87.35;101034.71;1791831;80;21138;-70
2022/11/28 06:38:38;;;;;;;7.60;6.20;;;;;;;2.02;87.35;101034.71;1779837;79;21567;-70
2022/11/28 06:41:07;;;;;;;6.37;5.15;;;;;;;1.96;87.49;101028.86;1778326;79;21014;-71
2022/11/28 06:43:34;;;;;;;4.70;4.05;;;;;;;1.95;87.60;101032.86;1778613;80;21610;-71
2022/11/28 06:46:01;;;;;;;7.00;5.33;;;;;;;2.06;87.43;101038.86;1791794;80;21024;-71
2022/11/28 06:48:27;;;;;;;6.95;5.83;;;;;;;2.10;87.14;101037.29;1791845;80;21302;-71
2022/11/28 06:50:54;;;;;;;7.05;5.85;;;;;;;1.99;86.67;101033.55;1786127;79;21009;-71
2022/11/28 06:53:20;;;;;;;6.83;6.05;;;;;;;1.86;86.91;101026.34;1747838;80;21047;-70
2022/11/28 06:55:47;;;;;;;6.35;5.75;;;;;;;1.96;87.25;101028.02;1780908;80;21471;-69
2022/11/28 06:58:13;;;;;;;8.23;7.37;;;;;;;1.96;87.25;101028.02;1771124;80;21008;-71
2022/11/28 07:00:40;;;;;;;6.90;6.08;;;;;;;1.94;87.58;101027.25;1790596;79;21240;-70
2022/11/28 07:03:06;;;;;;;7.78;6.60;;;;;;;2.01;87.16;101029.08;1782747;79;21001;-69
2022/11/28 07:05:32;;;;;;;9.50;8.68;;;;;;;2.01;87.16;101029.08;1787958;80;21020;-70
2022/11/28 07:07:59;;;;;;;9.65;8.40;;;;;;;2.06;87.59;101037.08;1778265;80;21032;-71
2022/11/28 07:10:27;;;;;;;11.50;8.18;;;;;;;2.00;87.60;101036.56;1782654;79;21649;-70
2022/11/28 07:12:58;;;;;;;7.65;6.58;;;;;;;2.00;87.60;101036.56;1779252;79;21484;-71
2022/11/28 07:15:26;;;;;;;8.80;6.90;;;;;;;2.06;87.49;101033.14;1767578;80;21106;-71
2022/11/28 07:17:53;;;;;;;9.28;6.67;;;;;;;2.10;87.45;101026.80;1762493;78;21488;-72
2022/11/28 07:20:19;;;;;;;9.28;7.10;;;;;;;2.06;87.78;101022.66;1762185;79;21476;-71
2022/11/28 07:22:49;;;;;;;8.38;6.80;;;;;;;2.06;87.78;101022.66;1759756;80;21449;-70
2022/11/28 07:25:16;;;;;;;8.08;6.65;;;;;;;2.23;87.34;101023.55;1780862;79;21187;-72
2022/11/28 07:27:42;;;;;;;8.75;6.83;;;;;;;2.16;86.87;101023.87;1789004;79;21056;-69
2022/11/28 07:30:10;;;;;;;9.10;7.40;;;;;;;2.16;86.87;101023.87;1788005;80;21511;-70
2022/11/28 07:32:40;;;;;;;10.70;8.43;;;;;;;2.08;87.13;101010.78;1782956;79;21029;-72
2022/11/28 07:35:07;;;;;;;10.60;8.15;;;;;;;2.16;86.70;101024.32;1779427;80;21032;-71
2022/11/28 07:37:35;;;;;;;10.88;8.88;;;;;;;2.16;86.92;101027.81;1776674;80;21186;-71
2022/11/28 07:40:01;;;;;;;10.28;8.83;;;;;;;2.07;86.88;101030.92;1784923;80;21529;-72
2022/11/28 07:42:28;;;;;;;14.13;9.58;;;;;;;2.10;86.82;101036.45;1763244;79;21048;-72
2022/11/28 07:44:56;;;;;;;16.75;10.85;;;;;;;2.14;87.09;101027.05;1713463;82;21607;-71
2022/11/28 07:47:22;;;;;;;16.27;11.63;;;;;;;2.14;87.09;101027.05;1719959;83;21050;-72
2022/11/28 07:49:49;;;;;;;16.40;11.22;;;;;;;2.15;87.49;101033.13;1724345;82;21597;-71
2022/11/28 07:52:16;;;;;;;17.32;11.97;;;;;;;2.19;87.36;101026.80;1719305;81;21038;-71
2022/11/28 07:54:42;;;;;;;15.95;11.65;;;;;;;2.19;87.36;101020.23;1730604;81;21675;-70
2022/11/28 07:57:09;;;;;;;19.85;13.08;;;;;;;2.28;87.62;101035.48;1728259;82;21062;-70
2022/11/28 07:59:36;;;;;;;16.25;12.28;;;;;;;2.29;87.89;101029.76;1732687;81;21565;-70
2022/11/28 08:02:03;;;;;;;13.08;10.95;;;;;;;2.39;87.47;101041.91;1723293;81;21149;-71
2022/11/28 08:04:34;;;;;;;13.22;10.82;;;;;;;2.39;87.47;101041.91;1718863;81;21074;-74
2022/11/28 08:07:00;;;;;;;16.17;10.78;;;;;;;2.41;87.71;101044.81;1687104;81;21057;-71
2022/11/28 08:09:27;;;;;;;12.75;9.65;;;;;;;2.41;87.71;101044.81;1726695;81;21053;-71
2022/11/28 08:11:54;;;;;;;11.05;8.88;;;;;;;2.34;87.87;101046.94;1730606;81;21131;-71
2022/11/28 08:14:21;;;;;;;14.58;10.13;;;;;;;2.37;87.64;101049.85;1730477;81;21779;-71
2022/11/28 08:16:48;;;;;;;14.45;11.28;;;;;;;2.42;87.18;101048.31;1733007;82;21328;-70
2022/11/28 08:19:14;;;;;;;13.28;10.55;;;;;;;2.37;87.29;101044.61;1733204;82;21106;-72
2022/11/28 08:21:41;;;;;;;13.00;9.85;;;;;;;2.35;86.48;101045.16;1730254;81;21576;-71
2022/11/28 08:24:07;;;;;;;11.85;8.85;;;;;;;2.35;86.48;101045.16;1719888;81;21001;-72
2022/11/28 08:26:35;;;;;;;12.00;9.33;;;;;;;2.36;86.60;101045.08;1729366;81;21777;-71
2022/11/28 08:29:02;;;;;;;12.68;9.03;;;;;;;2.31;86.56;101039.70;1721713;82;21096;-70
2022/11/28 08:31:35;;;;;;;11.57;8.40;;;;;;;2.22;86.17;101042.37;1717919;81;21116;-74
2022/11/28 08:34:04;;;;;;;;;;;;;;;2.23;85.69;101041.90;1720757;81;21042;-74
2022/11/28 08:36:31;;;;;;;10.38;7.78;;;;;;;2.24;86.17;101044.44;1723535;82;20523;-73
2022/11/28 08:39:01;;;;;;;12.33;8.13;;;;;;;2.16;86.08;101038.30;1710958;82;21198;-74
2022/11/28 08:41:28;;;;;;;14.93;8.15;;;;;;;2.10;86.63;101046.94;1718193;82;21018;-73
2022/11/28 08:43:54;;;;;;;11.90;8.50;;;;;;;2.19;87.02;101050.86;1732106;81;21588;-74
2022/11/28 08:46:21;;;;;;;13.22;10.20;;;;;;;2.16;86.89;101050.09;1717529;82;21822;-74
2022/11/28 08:48:49;;;;;;;14.05;10.10;;;;;;;2.07;86.77;101048.44;1713656;81;21590;-74
2022/11/28 08:51:18;;;;;;;14.33;9.93;;;;;;;2.00;87.11;101049.20;1705737;82;21108;-74
2022/11/28 08:53:45;;;;;;;13.85;11.28;;;;;;;2.03;86.61;101049.49;1706329;82;21077;-74
2022/11/28 08:56:12;;;;;;;13.58;11.68;;;;;;;1.99;87.02;101051.90;1707963;81;21013;-74
2022/11/28 08:58:38;;;;;;;14.33;10.58;;;;;;;1.99;87.02;101051.90;1721587;81;21057;-72
2022/11/28 09:01:18;;;;;;;14.05;9.55;;;;;;;1.94;86.83;101048.22;1704788;82;21045;-75
2022/11/28 09:03:45;;;;;;;15.88;10.70;;;;;;;1.90;86.59;101048.00;1729608;82;21215;-76
2022/11/28 09:06:13;;;;;;;13.50;10.13;;;;;;;1.95;87.16;101041.59;1718280;81;22025;-74
2022/11/28 09:08:39;;;;;;;13.08;10.13;;;;;;;1.96;87.61;101046.36;1717656;81;21173;-75
2022/11/28 09:11:08;;;;;;;13.40;10.68;;;;;;;2.06;88.25;101042.80;1722341;82;21069;-74
2022/11/28 09:13:36;;;;;;;12.85;10.53;;;;;;;2.06;88.25;101042.80;1718670;81;21060;-75
2022/11/28 09:16:03;;;;;;;14.38;10.95;;;;;;;2.20;88.01;101042.05;1707396;82;21763;-76
2022/11/28 09:18:29;;;;;;;15.32;12.43;;;;;;;2.21;88.13;101039.83;1723047;81;21104;-75
2022/11/28 09:21:09;;;;;;;19.10;12.98;;;;;;;2.20;88.02;101038.12;1703836;82;21052;-74
2022/11/28 09:23:40;;;;;;;20.30;14.85;;;;;;;2.25;87.41;101035.62;1726252;81;21489;-73
2022/11/28 09:26:12;;;;;;;21.37;15.43;;;;;;;2.29;87.52;101033.69;1725517;82;21174;-70
2022/11/28 09:28:39;;;;;;;25.05;15.45;;;;;;;2.25;87.90;101036.11;1721975;82;25663;-73
2022/11/28 09:31:06;;;;;;;17.52;14.10;;;;;;;2.33;87.73;101036.53;1710507;81;21045;-72
2022/11/28 09:33:34;;;;;;;20.85;15.72;;;;;;;2.33;87.73;101036.53;1735223;81;21045;-77
2022/11/28 09:36:10;;;;;;;19.50;15.13;;;;;;;2.39;87.96;101036.19;1721657;81;21105;-75
2022/11/28 09:38:37;;;;;;;18.82;14.75;;;;;;;2.37;87.91;101039.36;1716643;81;21073;-74
2022/11/28 09:41:23;;;;;;;16.57;13.05;;;;;;;2.43;87.75;101036.39;1720332;82;21221;-74
2022/11/28 09:43:51;;;;;;;16.87;14.05;;;;;;;2.43;87.75;101036.39;1715450;82;21033;-74
2022/11/28 09:46:25;;;;;;;18.80;14.85;;;;;;;2.42;87.67;101034.72;1724828;81;20975;-75
2022/11/28 09:48:55;;;;;;;19.80;15.18;;;;;;;2.33;87.62;101037.84;1734123;82;21022;-74
2022/11/28 09:51:43;;;;;;;20.80;15.30;;;;;;;2.21;87.24;101030.17;1730215;81;21006;-75
2022/11/28 09:54:16;;;;;;;19.57;15.63;;;;;;;2.25;87.67;101033.48;1724448;82;21548;-75
2022/11/28 09:56:45;;;;;;;21.45;16.25;;;;;;;2.25;87.67;101033.48;1711085;81;21080;-74
2022/11/28 09:59:23;;;;;;;29.98;20.15;;;;;;;2.21;88.29;101027.55;1732857;82;21094;-72
2022/11/28 10:02:14;;;;;;;25.45;17.15;;;;;;;2.21;88.58;101023.62;1715336;82;21093;-72
2022/11/28 10:04:57;;;;;;;22.98;17.02;;;;;;;2.36;88.50;101022.78;1706664;81;21571;-73
2022/11/28 10:07:41;;;;;;;21.50;17.07;;;;;;;2.40;88.16;101018.22;1725830;81;21076;-73
2022/11/28 10:10:40;;;;;;;28.57;18.67;;;;;;;2.40;88.16;101018.22;1741598;81;21006;-73
2022/11/28 10:13:23;;;;;;;27.05;18.15;;;;;;;2.34;87.53;101010.70;1730398;82;21607;-73
2022/11/28 10:16:38;;;;;;;26.20;18.30;;;;;;;2.39;87.12;101006.02;1726731;81;21029;-73
2022/11/28 10:19:08;;;;;;;29.63;17.52;;;;;;;2.36;87.49;101007.52;1732092;82;21112;-71
2022/11/28 10:21:45;;;;;;;24.87;15.88;;;;;;;2.34;88.43;101001.05;1729968;81;21225;-75
2022/11/28 10:24:18;;;;;;;32.23;18.32;;;;;;;2.52;88.14;101016.22;1730777;81;21057;-74
2022/11/28 10:26:49;;;;;;;26.37;17.15;;;;;;;2.49;88.06;101015.10;1724174;81;21069;-73
2022/11/28 10:29:30;;;;;;;27.85;17.82;;;;;;;2.49;88.06;101015.10;1737807;81;21515;-75
2022/11/28 10:32:00;;;;;;;23.40;15.53;;;;;;;2.46;87.91;101023.13;1734195;81;21105;-74
2022/11/28 10:34:31;;;;;;;27.85;16.27;;;;;;;2.48;87.88;101020.42;1747660;81;21269;-76
2022/11/28 10:37:09;;;;;;;26.85;16.87;;;;;;;2.54;87.66;101024.85;1747239;80;21102;-77
2022/11/28 10:39:37;;;;;;;27.25;16.57;;;;;;;2.50;87.53;101021.19;1726187;81;21482;-79
2022/11/28 10:42:32;;;;;;;19.80;14.13;;;;;;;2.43;87.48;101018.51;1750253;80;21114;-76
2022/11/28 10:45:17;;;;;;;19.82;15.28;;;;;;;2.43;87.58;101022.44;1738510;81;21022;-78
2022/11/28 10:48:13;;;;;;;19.82;14.40;;;;;;;2.48;87.15;101016.48;1731848;81;21204;-72
2022/11/28 10:51:00;;;;;;;20.10;14.47;;;;;;;2.30;87.25;101018.35;1752158;80;21077;-76
2022/11/28 10:54:03;;;;;;;20.05;15.03;;;;;;;2.30;87.25;101018.35;1740899;80;21121;-81
2022/11/28 10:56:47;;;;;;;20.55;15.55;;;;;;;2.31;87.34;101023.97;1751881;80;21493;-80
2022/11/28 10:59:36;;;;;;;21.80;15.85;;;;;;;2.35;87.09;101028.95;1738599;80;21029;-74
2022/11/28 11:02:20;;;;;;;22.45;15.48;;;;;;;2.27;87.45;101022.44;1738336;80;21124;-73
2022/11/28 11:04:48;;;;;;;18.98;14.10;;;;;;;2.19;87.92;101022.02;1713529;81;21072;-75
2022/11/28 11:07:25;;;;;;;17.77;15.35;;;;;;;2.25;87.96;101017.27;1729109;81;21532;-77
2022/11/28 11:09:52;;;;;;;19.37;14.65;;;;;;;2.27;88.49;101016.72;1694381;83;21604;-77
2022/11/28 11:12:22;;;;;;;17.77;14.85;;;;;;;2.27;88.49;101016.72;1721350;82;21612;-77
2022/11/28 11:14:49;;;;;;;16.32;13.35;;;;;;;2.26;89.18;101024.23;1733872;82;22843;-81
2022/11/28 11:17:36;;;;;;;18.60;13.50;;;;;;;2.38;88.89;101025.33;1733291;81;20994;-83
2022/11/28 11:20:08;;;;;;;18.77;15.20;;;;;;;2.38;88.89;101025.33;1720842;82;21051;-80
2022/11/28 11:22:35;;;;;;;19.80;15.23;;;;;;;2.39;89.52;101027.00;1701054;82;21048;-80
2022/11/28 11:25:15;;;;;;;20.62;14.93;;;;;;;2.36;89.73;101028.03;1729175;81;21012;-80
2022/11/28 11:27:52;;;;;;;18.87;15.50;;;;;;;2.41;89.45;101026.93;1723401;81;21938;-74
2022/11/28 11:30:37;;;;;;;21.12;16.77;;;;;;;2.48;88.62;101033.06;1745534;80;21183;-73
2022/11/28 11:33:06;;;;;;;21.70;16.77;;;;;;;2.36;88.01;101028.50;1746070;80;21077;-75
2022/11/28 11:35:36;;;;;;;22.82;16.90;;;;;;;2.16;88.23;101027.81;1743339;81;21041;-75
2022/11/28 11:38:26;;;;;;;22.82;16.15;;;;;;;2.11;88.17;101028.52;1748242;81;21021;-76
2022/11/28 11:40:52;;;;;;;21.90;17.02;;;;;;;2.04;88.12;101032.38;1752925;80;21108;-77
2022/11/28 11:43:29;;;;;;;21.37;16.65;;;;;;;1.95;88.50;101030.24;1719807;80;21034;-75
2022/11/28 11:46:11;;;;;;;23.95;16.48;;;;;;;1.95;88.50;101030.24;1744048;80;20998;-79
2022/11/28 11:48:49;;;;;;;23.30;16.12;;;;;;;1.98;88.65;101022.23;1743765;80;21132;-77
2022/11/28 11:51:28;;;;;;;24.50;18.02;;;;;;;2.09;88.39;101024.30;1740294;80;21545;-74
2022/11/28 11:54:17;;;;;;;25.90;17.65;;;;;;;2.04;88.33;101017.96;1734536;81;21494;-75